Time;durP1;ratioP1;P1;durP2;ratioP2;P2;SDS_P1;SDS_P2;PMS_P1;PMS_P2;Temp;Humidity;BMP_temperature;BMP_pressure;BME280_temperature;BME280_humidity;BME280_pressure;Samples;Min_cycle;Max_cycle;Signal;HPM_P1;HPM_P2
2024/01/13 00:00:20;;;;;;;74.03;27.50;;;-5.30;99.90;;;;;;5025083;28;20309;-78
2024/01/13 00:02:46;;;;;;;92.82;30.42;;;-5.40;99.90;;;;;;5025410;28;20025;-77
2024/01/13 00:05:11;;;;;;;91.55;30.80;;;-5.40;99.90;;;;;;5041069;28;20229;-75
2024/01/13 00:07:37;;;;;;;90.60;28.17;;;-5.30;99.90;;;;;;5043100;28;20040;-76
2024/01/13 00:10:03;;;;;;;82.63;26.27;;;-5.30;99.90;;;;;;5042778;28;20026;-76
2024/01/13 00:12:29;;;;;;;82.25;27.90;;;-5.30;99.90;;;;;;5024948;28;20026;-77
2024/01/13 00:14:54;;;;;;;91.72;27.83;;;-5.20;99.90;;;;;;5043107;28;20040;-75
2024/01/13 00:17:20;;;;;;;94.03;29.02;;;-5.10;99.90;;;;;;5042488;28;20029;-76
2024/01/13 00:19:46;;;;;;;111.50;32.60;;;-5.10;99.90;;;;;;5042228;28;20579;-76
2024/01/13 00:22:11;;;;;;;93.93;31.70;;;-5.10;99.90;;;;;;5043334;28;20056;-74
2024/01/13 00:24:37;;;;;;;93.03;31.70;;;-5.10;99.90;;;;;;5042633;28;20048;-77
2024/01/13 00:27:06;;;;;;;94.63;31.85;;;-5.10;99.90;;;;;;5042218;28;20245;-75
2024/01/13 00:29:32;;;;;;;96.63;28.25;;;-5.00;99.90;;;;;;5041700;28;20022;-76
2024/01/13 00:31:58;;;;;;;95.63;31.15;;;-5.10;99.90;;;;;;5042551;28;20029;-77
2024/01/13 00:34:24;;;;;;;89.10;26.25;;;-5.10;99.90;;;;;;5042659;28;20221;-75
2024/01/13 00:36:49;;;;;;;109.28;32.63;;;-5.10;99.90;;;;;;5042823;28;20017;-76
2024/01/13 00:39:15;;;;;;;86.20;28.83;;;-5.10;99.90;;;;;;5042811;28;20059;-76
2024/01/13 00:41:41;;;;;;;93.65;29.15;;;-5.00;99.90;;;;;;5041715;28;20032;-76
2024/01/13 00:44:06;;;;;;;103.82;30.48;;;-5.10;99.90;;;;;;5041908;28;20173;-77
2024/01/13 00:46:32;;;;;;;139.05;33.65;;;-5.10;99.90;;;;;;5044012;28;20268;-77
2024/01/13 00:48:57;;;;;;;93.30;29.50;;;-5.10;99.90;;;;;;5024912;28;20262;-77
2024/01/13 00:51:23;;;;;;;87.53;26.92;;;-5.10;99.90;;;;;;5042549;28;20030;-77
2024/01/13 00:53:49;;;;;;;111.38;34.70;;;-5.00;99.90;;;;;;5051972;28;20036;-77
2024/01/13 00:56:14;;;;;;;105.97;32.17;;;-5.00;99.90;;;;;;5062235;28;20051;-78
2024/01/13 00:58:40;;;;;;;102.32;31.38;;;-5.00;99.90;;;;;;5062483;28;20032;-77
2024/01/13 01:01:06;;;;;;;103.38;31.02;;;-5.00;99.90;;;;;;5044803;28;20053;-75
2024/01/13 01:03:31;;;;;;;91.15;29.88;;;-4.90;99.90;;;;;;5061013;28;20041;-76
2024/01/13 01:05:58;;;;;;;109.65;32.60;;;-4.90;99.90;;;;;;5061899;28;20087;-78
2024/01/13 01:08:23;;;;;;;116.72;33.42;;;-4.80;99.90;;;;;;5044295;28;20028;-78
2024/01/13 01:10:49;;;;;;;105.30;31.90;;;-4.80;99.90;;;;;;5052854;28;20026;-77
2024/01/13 01:13:15;;;;;;;101.90;31.80;;;-4.90;99.90;;;;;;5042796;28;20449;-76
2024/01/13 01:15:41;;;;;;;110.70;34.03;;;-5.00;99.90;;;;;;5024409;28;20341;-76
2024/01/13 01:18:06;;;;;;;121.85;35.70;;;-4.40;99.90;;;;;;5041295;28;20026;-73
2024/01/13 01:20:32;;;;;;;114.97;32.17;;;-4.80;99.90;;;;;;5023529;28;20625;-74
2024/01/13 01:22:58;;;;;;;116.13;33.40;;;-4.20;99.90;;;;;;5026660;28;20027;-78
2024/01/13 01:25:23;;;;;;;105.13;33.83;;;-4.80;99.90;;;;;;5059115;28;20033;-78
2024/01/13 01:27:49;;;;;;;128.13;34.33;;;-4.80;99.90;;;;;;5060414;28;20480;-76
2024/01/13 01:30:15;;;;;;;105.60;30.15;;;-4.90;99.90;;;;;;5061323;28;20092;-79
2024/01/13 01:32:40;;;;;;;107.75;32.25;;;-4.90;99.90;;;;;;5044033;28;20021;-75
2024/01/13 01:35:06;;;;;;;108.80;31.27;;;-4.80;99.90;;;;;;5061497;28;20099;-76
2024/01/13 01:37:33;;;;;;;129.10;38.30;;;-4.90;99.90;;;;;;5060376;28;20021;-77
2024/01/13 01:39:59;;;;;;;114.95;32.35;;;-4.90;99.90;;;;;;5060895;28;20317;-78
2024/01/13 01:42:24;;;;;;;129.77;40.05;;;-4.80;99.90;;;;;;5043745;28;20024;-76
2024/01/13 01:44:50;;;;;;;101.80;34.95;;;-4.70;99.90;;;;;;5060080;28;20037;-77
2024/01/13 01:47:19;;;;;;;97.32;28.88;;;-4.90;99.90;;;;;;5060547;28;20036;-74
2024/01/13 01:49:46;;;;;;;108.47;33.50;;;-4.90;99.90;;;;;;5059932;28;20063;-75
2024/01/13 01:52:12;;;;;;;120.32;35.35;;;-4.90;99.90;;;;;;5060523;28;20021;-75
2024/01/13 01:54:38;;;;;;;129.70;37.58;;;-5.00;99.90;;;;;;5043845;28;20079;-77
2024/01/13 01:57:06;;;;;;;119.85;34.35;;;-5.00;99.90;;;;;;5039269;28;20021;-76
2024/01/13 01:59:31;;;;;;;120.88;36.92;;;-5.00;99.90;;;;;;5022127;28;20040;-75
2024/01/13 02:01:59;;;;;;;116.90;33.80;;;-4.90;99.90;;;;;;5023257;28;20037;-76
2024/01/13 02:04:25;;;;;;;123.43;39.00;;;-4.90;99.90;;;;;;5046155;28;20086;-78
2024/01/13 02:06:51;;;;;;;122.20;35.28;;;-4.80;99.90;;;;;;5034560;28;20021;-74
2024/01/13 02:09:17;;;;;;;104.88;31.77;;;-4.80;99.90;;;;;;5059894;28;20021;-77
2024/01/13 02:11:43;;;;;;;112.00;34.15;;;-4.70;99.90;;;;;;5060962;28;20442;-75
2024/01/13 02:14:09;;;;;;;129.07;37.90;;;-4.70;99.90;;;;;;5057553;28;20025;-76
2024/01/13 02:16:35;;;;;;;116.22;33.65;;;-4.70;99.90;;;;;;5059617;28;20025;-76
2024/01/13 02:19:00;;;;;;;129.70;35.13;;;-4.70;99.90;;;;;;5057296;28;20092;-76
2024/01/13 02:21:26;;;;;;;128.77;34.25;;;-4.60;99.90;;;;;;5042417;28;20044;-74
2024/01/13 02:23:51;;;;;;;125.65;33.15;;;-4.60;99.90;;;;;;5060557;28;20028;-74
2024/01/13 02:26:17;;;;;;;114.47;35.88;;;-4.60;99.90;;;;;;5058801;28;20342;-78
2024/01/13 02:28:43;;;;;;;120.45;34.50;;;-4.50;99.90;;;;;;5060795;28;20025;-78
2024/01/13 02:31:08;;;;;;;122.68;36.33;;;-4.50;99.90;;;;;;5042932;28;20043;-76
2024/01/13 02:33:34;;;;;;;114.40;33.78;;;-3.80;99.90;;;;;;5060628;28;20020;-76
2024/01/13 02:36:00;;;;;;;127.85;34.35;;;-4.50;99.90;;;;;;5043370;28;20029;-75
2024/01/13 02:38:25;;;;;;;134.13;38.28;;;-4.60;99.90;;;;;;5043270;28;20317;-74
2024/01/13 02:40:51;;;;;;;123.00;36.38;;;-4.50;99.90;;;;;;5060614;28;20633;-76
2024/01/13 02:43:16;;;;;;;117.15;33.67;;;-4.90;99.90;;;;;;5060643;28;20060;-75
2024/01/13 02:45:42;;;;;;;110.53;32.90;;;-4.60;99.90;;;;;;5060412;28;20423;-75
2024/01/13 02:48:13;;;;;;;114.70;32.55;;;-4.60;99.90;;;;;;5060931;28;20017;-76
2024/01/13 02:50:39;;;;;;;107.22;32.53;;;-4.60;99.90;;;;;;5063784;28;20016;-77
2024/01/13 02:53:04;;;;;;;108.97;31.73;;;-4.60;99.90;;;;;;5060786;28;20016;-77
2024/01/13 02:55:30;;;;;;;100.65;30.58;;;-4.50;99.90;;;;;;5044011;28;20021;-74
2024/01/13 02:57:56;;;;;;;99.22;32.70;;;-4.50;99.90;;;;;;5042062;28;20486;-77
2024/01/13 03:00:21;;;;;;;124.40;35.97;;;-4.60;99.90;;;;;;5035655;28;20032;-75
2024/01/13 03:02:47;;;;;;;110.82;32.90;;;-4.50;99.90;;;;;;5039521;28;20037;-74
2024/01/13 03:05:12;;;;;;;135.68;37.67;;;-4.50;99.90;;;;;;5045957;28;20033;-73
2024/01/13 03:07:38;;;;;;;117.35;34.17;;;-4.40;99.90;;;;;;5063635;28;20211;-76
2024/01/13 03:10:04;;;;;;;138.27;36.30;;;-4.60;99.90;;;;;;5062597;28;20021;-76
2024/01/13 03:12:30;;;;;;;114.32;31.73;;;-4.60;99.90;;;;;;5063449;28;20020;-78
2024/01/13 03:14:56;;;;;;;97.07;27.88;;;-4.50;99.90;;;;;;5064037;28;20052;-78
2024/01/13 03:17:22;;;;;;;111.50;33.33;;;-4.60;99.90;;;;;;5046552;28;20021;-76
2024/01/13 03:19:47;;;;;;;123.80;32.97;;;-4.70;99.90;;;;;;5046692;28;20133;-76
2024/01/13 03:22:13;;;;;;;106.22;32.38;;;-4.60;99.90;;;;;;5045485;28;20061;-77
2024/01/13 03:24:39;;;;;;;95.35;30.42;;;-4.50;99.90;;;;;;5063990;28;20070;-78
2024/01/13 03:27:04;;;;;;;105.72;30.38;;;-4.50;99.90;;;;;;5045552;28;20321;-75
2024/01/13 03:29:30;;;;;;;101.45;27.70;;;-4.50;99.90;;;;;;5046025;28;20044;-76
2024/01/13 03:31:56;;;;;;;93.18;30.10;;;-4.50;99.90;;;;;;5046201;28;20048;-78
2024/01/13 03:34:21;;;;;;;103.40;31.73;;;-4.40;99.90;;;;;;5045751;28;20024;-77
2024/01/13 03:36:47;;;;;;;111.35;32.05;;;-4.40;99.90;;;;;;5063823;28;20021;-75
2024/01/13 03:39:13;;;;;;;106.85;31.77;;;-4.30;99.90;;;;;;5063349;28;20267;-76
2024/01/13 03:41:39;;;;;;;101.82;29.52;;;-4.40;99.90;;;;;;5063216;28;20074;-75
2024/01/13 03:44:04;;;;;;;106.45;30.25;;;-4.30;99.90;;;;;;5045224;28;20355;-74
2024/01/13 03:46:30;;;;;;;109.90;32.05;;;-4.30;99.90;;;;;;5063336;28;20025;-76
2024/01/13 03:48:56;;;;;;;110.88;30.55;;;-4.30;99.90;;;;;;5063740;28;20017;-79
2024/01/13 03:51:21;;;;;;;96.55;27.92;;;-4.20;99.90;;;;;;5063402;28;20083;-78
2024/01/13 03:53:47;;;;;;;100.63;30.02;;;-4.30;99.90;;;;;;5053345;28;20022;-76
2024/01/13 03:56:12;;;;;;;110.20;31.00;;;-4.30;99.90;;;;;;5043015;28;20109;-75
2024/01/13 03:58:39;;;;;;;100.82;29.08;;;-4.30;99.90;;;;;;5041174;28;20049;-74
2024/01/13 04:01:05;;;;;;;97.68;28.80;;;-4.30;99.90;;;;;;5024179;28;20213;-77
2024/01/13 04:03:30;;;;;;;97.82;29.88;;;-4.40;99.90;;;;;;5024985;28;20033;-78
2024/01/13 04:05:58;;;;;;;99.30;31.98;;;-4.30;99.90;;;;;;5042378;28;20199;-75
2024/01/13 04:08:24;;;;;;;91.72;28.63;;;-4.30;99.90;;;;;;5025542;28;20326;-76
2024/01/13 04:10:50;;;;;;;101.25;29.65;;;-4.40;99.90;;;;;;5043514;28;20075;-76
2024/01/13 04:13:16;;;;;;;97.55;30.40;;;-3.60;99.90;;;;;;5025352;28;20029;-75
2024/01/13 04:15:42;;;;;;;114.22;33.50;;;-4.40;99.90;;;;;;5042610;28;20017;-76
2024/01/13 04:18:08;;;;;;;114.28;30.75;;;-4.40;99.90;;;;;;5042421;28;20321;-75
2024/01/13 04:20:33;;;;;;;99.32;31.83;;;-4.40;99.90;;;;;;5043147;28;20018;-75
2024/01/13 04:22:59;;;;;;;91.80;28.08;;;-4.40;99.90;;;;;;5042767;28;20036;-76
2024/01/13 04:25:25;;;;;;;107.93;30.50;;;-4.50;99.90;;;;;;5042927;28;20055;-76
2024/01/13 04:27:52;;;;;;;100.15;28.90;;;-4.40;99.90;;;;;;5042250;28;20021;-77
2024/01/13 04:30:18;;;;;;;104.78;33.80;;;-4.40;99.90;;;;;;5042375;28;20029;-76
2024/01/13 04:32:44;;;;;;;105.30;30.88;;;-4.40;99.90;;;;;;5042907;28;20029;-77
2024/01/13 04:35:10;;;;;;;112.38;32.97;;;-4.50;99.90;;;;;;5041115;28;20104;-75
2024/01/13 04:37:36;;;;;;;101.20;30.65;;;-4.40;99.90;;;;;;5042553;28;20033;-74
2024/01/13 04:40:03;;;;;;;100.97;28.63;;;-4.40;99.90;;;;;;5043114;28;20048;-76
2024/01/13 04:42:31;;;;;;;101.60;29.92;;;-3.80;99.90;;;;;;5025022;28;20088;-74
2024/01/13 04:44:57;;;;;;;100.88;31.15;;;-4.40;99.90;;;;;;5041935;28;20039;-76
2024/01/13 04:47:24;;;;;;;86.22;25.85;;;-4.50;99.90;;;;;;5041057;28;20049;-75
2024/01/13 04:49:49;;;;;;;104.05;27.05;;;-4.50;99.90;;;;;;5024627;28;20088;-78
2024/01/13 04:52:15;;;;;;;104.35;31.65;;;-4.50;99.90;;;;;;5042034;28;20209;-74
2024/01/13 04:54:41;;;;;;;104.38;29.70;;;-4.40;99.90;;;;;;5059017;28;20025;-76
2024/01/13 04:57:06;;;;;;;110.63;33.15;;;-4.40;99.90;;;;;;5061923;28;20084;-76
2024/01/13 04:59:32;;;;;;;98.97;29.85;;;-4.40;99.90;;;;;;5043754;28;20144;-77
2024/01/13 05:01:58;;;;;;;91.70;26.15;;;-4.40;99.90;;;;;;5062470;28;20021;-77
2024/01/13 05:04:23;;;;;;;97.60;27.77;;;-4.30;99.90;;;;;;5045061;28;20082;-75
2024/01/13 05:06:49;;;;;;;106.88;29.25;;;-4.20;99.90;;;;;;5062508;28;20263;-75
2024/01/13 05:09:15;;;;;;;102.68;28.42;;;-4.10;99.90;;;;;;5044503;28;20029;-77
2024/01/13 05:11:41;;;;;;;100.80;28.35;;;-4.10;99.90;;;;;;5062010;28;20089;-77
2024/01/13 05:14:06;;;;;;;94.82;27.50;;;-3.60;99.90;;;;;;5062670;28;20337;-78
2024/01/13 05:16:32;;;;;;;104.18;31.25;;;-4.10;99.90;;;;;;5062061;28;20067;-76
2024/01/13 05:18:58;;;;;;;99.97;28.08;;;-4.00;99.90;;;;;;5062043;28;20024;-77
2024/01/13 05:21:23;;;;;;;100.88;26.33;;;-4.00;99.90;;;;;;5062448;28;20079;-78
2024/01/13 05:23:49;;;;;;;100.57;28.95;;;-4.00;99.90;;;;;;5044219;28;20082;-74
2024/01/13 05:26:14;;;;;;;93.40;26.13;;;-3.90;99.90;;;;;;5044547;28;20029;-78
2024/01/13 05:28:40;;;;;;;98.28;26.75;;;-4.00;99.90;;;;;;5062064;28;20040;-76
2024/01/13 05:31:06;;;;;;;104.15;30.15;;;-4.00;99.90;;;;;;5061466;28;20025;-75
2024/01/13 05:33:31;;;;;;;97.20;30.85;;;-4.10;99.90;;;;;;5062833;28;20024;-77
2024/01/13 05:35:57;;;;;;;99.50;27.30;;;-4.10;99.90;;;;;;5062696;28;20085;-75
2024/01/13 05:38:23;;;;;;;94.07;29.23;;;-3.40;99.90;;;;;;5061237;28;20021;-76
2024/01/13 05:40:48;;;;;;;96.13;29.45;;;-4.00;99.90;;;;;;5027477;28;20123;-76
2024/01/13 05:43:14;;;;;;;96.07;29.05;;;-4.00;99.90;;;;;;5061221;28;20212;-76
2024/01/13 05:45:40;;;;;;;84.93;27.13;;;-3.40;99.90;;;;;;5060724;28;20025;-75
2024/01/13 05:48:06;;;;;;;88.70;27.45;;;-4.00;99.90;;;;;;5061062;28;20056;-75
2024/01/13 05:50:32;;;;;;;93.28;29.38;;;-4.00;99.90;;;;;;5060761;28;20033;-76
2024/01/13 05:52:57;;;;;;;87.78;29.70;;;-4.00;99.90;;;;;;5043720;28;20029;-77
2024/01/13 05:55:23;;;;;;;92.30;27.48;;;-4.00;99.90;;;;;;5061426;28;20027;-74
2024/01/13 05:57:48;;;;;;;92.70;28.55;;;-3.90;99.90;;;;;;5061654;28;20021;-78
2024/01/13 06:00:15;;;;;;;96.00;28.45;;;-4.00;99.90;;;;;;5061381;28;20093;-77
2024/01/13 06:02:40;;;;;;;103.78;27.10;;;-4.00;99.90;;;;;;5059455;28;20032;-76
2024/01/13 06:05:06;;;;;;;88.20;27.15;;;-4.00;99.90;;;;;;5060592;28;20041;-74
2024/01/13 06:07:32;;;;;;;85.13;24.98;;;-4.00;99.90;;;;;;5060893;28;20029;-75
2024/01/13 06:09:58;;;;;;;102.65;27.23;;;-4.00;99.90;;;;;;5061065;28;20095;-79
2024/01/13 06:12:23;;;;;;;91.95;24.70;;;-4.00;99.90;;;;;;5061217;28;20028;-78
2024/01/13 06:14:49;;;;;;;86.53;24.60;;;-4.00;99.90;;;;;;5043040;28;20032;-77
2024/01/13 06:17:15;;;;;;;84.00;26.70;;;-3.10;99.90;;;;;;5059812;28;20074;-77
2024/01/13 06:19:41;;;;;;;85.28;25.50;;;-4.00;99.90;;;;;;5043279;28;20017;-77
2024/01/13 06:22:07;;;;;;;93.90;26.88;;;-4.00;99.90;;;;;;5059134;28;20372;-77
2024/01/13 06:24:33;;;;;;;81.15;25.70;;;-4.00;99.90;;;;;;5060139;28;20037;-77
2024/01/13 06:26:59;;;;;;;87.45;25.83;;;-4.10;99.90;;;;;;5060370;28;20029;-76
2024/01/13 06:29:25;;;;;;;83.85;24.67;;;-4.10;99.90;;;;;;5060528;28;20023;-76
2024/01/13 06:31:51;;;;;;;86.38;26.30;;;-4.10;99.90;;;;;;5059027;28;20017;-76
2024/01/13 06:34:16;;;;;;;89.60;26.25;;;-4.10;99.90;;;;;;5059580;28;20091;-76
2024/01/13 06:36:42;;;;;;;81.35;25.10;;;-4.10;99.90;;;;;;5043597;28;20017;-76
2024/01/13 06:39:08;;;;;;;80.80;25.02;;;-4.10;99.90;;;;;;5061479;28;20060;-77
2024/01/13 06:41:33;;;;;;;91.85;26.75;;;-4.00;99.90;;;;;;5059136;28;20248;-77
2024/01/13 06:43:59;;;;;;;78.47;25.33;;;-3.70;99.90;;;;;;5060805;28;20036;-77
2024/01/13 06:46:25;;;;;;;84.35;27.92;;;-4.00;99.90;;;;;;5045152;28;20029;-78
2024/01/13 06:48:50;;;;;;;71.68;21.10;;;-4.10;99.90;;;;;;5061173;28;20021;-78
2024/01/13 06:51:16;;;;;;;89.28;26.23;;;-4.10;99.90;;;;;;5060999;28;20025;-77
2024/01/13 06:53:42;;;;;;;84.38;24.63;;;-4.10;99.90;;;;;;5061020;28;20080;-77
2024/01/13 06:56:08;;;;;;;85.30;26.25;;;-4.10;99.90;;;;;;5059478;28;20017;-76
2024/01/13 06:58:34;;;;;;;79.28;23.23;;;-4.10;99.90;;;;;;5058771;28;20313;-77
2024/01/13 07:01:00;;;;;;;74.43;21.90;;;-4.20;99.90;;;;;;5060328;28;20021;-76
2024/01/13 07:03:25;;;;;;;83.18;25.45;;;-4.10;99.90;;;;;;5058996;28;20320;-75
2024/01/13 07:05:51;;;;;;;70.00;20.80;;;-4.10;99.90;;;;;;5061647;28;20029;-77
2024/01/13 07:08:18;;;;;;;77.75;22.95;;;-4.20;99.90;;;;;;5061091;28;20340;-75
2024/01/13 07:10:43;;;;;;;72.38;23.25;;;-4.10;99.90;;;;;;5039148;28;20256;-75
2024/01/13 07:13:09;;;;;;;74.72;24.10;;;-4.10;99.90;;;;;;5056936;28;20020;-76
2024/01/13 07:15:35;;;;;;;74.82;23.00;;;-4.10;99.90;;;;;;5042568;28;20388;-76
2024/01/13 07:18:01;;;;;;;68.30;22.38;;;-4.10;99.90;;;;;;5060662;28;20041;-76
2024/01/13 07:20:27;;;;;;;68.90;21.33;;;-4.20;99.90;;;;;;5042536;28;20021;-77
2024/01/13 07:22:53;;;;;;;68.35;21.30;;;-4.20;99.90;;;;;;5042562;28;20039;-76
2024/01/13 07:25:19;;;;;;;69.10;21.25;;;-4.30;99.90;;;;;;5061439;28;20036;-75
2024/01/13 07:27:45;;;;;;;68.32;20.70;;;-4.20;99.90;;;;;;5062546;28;20076;-75
2024/01/13 07:30:11;;;;;;;66.10;21.92;;;-4.20;99.90;;;;;;5062137;28;20080;-76
2024/01/13 07:32:37;;;;;;;59.95;19.40;;;-4.40;99.90;;;;;;5060692;28;20017;-75
2024/01/13 07:35:03;;;;;;;67.60;20.95;;;-4.50;99.90;;;;;;5060559;28;20028;-75
2024/01/13 07:37:29;;;;;;;64.25;18.65;;;-4.50;99.90;;;;;;5044674;28;20052;-75
2024/01/13 07:39:55;;;;;;;63.35;18.85;;;-4.50;99.90;;;;;;5063661;28;20044;-75
2024/01/13 07:42:20;;;;;;;79.10;20.27;;;-4.50;99.90;;;;;;5045727;28;20062;-77
2024/01/13 07:44:46;;;;;;;73.10;22.70;;;-4.50;99.90;;;;;;5045206;28;20310;-76
2024/01/13 07:47:11;;;;;;;66.70;19.83;;;-4.50;99.90;;;;;;5062986;28;20292;-74
2024/01/13 07:49:37;;;;;;;71.93;22.15;;;-4.50;99.90;;;;;;5062831;28;20032;-74
2024/01/13 07:52:04;;;;;;;70.25;23.15;;;-4.50;99.90;;;;;;5061970;28;20021;-74
2024/01/13 07:54:30;;;;;;;87.35;22.30;;;-4.50;99.90;;;;;;5061996;28;20052;-74
2024/01/13 07:56:55;;;;;;;79.82;21.95;;;-4.50;99.90;;;;;;5062428;28;20025;-74
2024/01/13 07:59:22;;;;;;;74.75;22.15;;;-4.40;99.90;;;;;;5044183;28;20100;-73
2024/01/13 08:01:47;;;;;;;71.65;20.67;;;-4.30;99.90;;;;;;5062504;28;20028;-73
2024/01/13 08:04:15;;;;;;;80.55;22.52;;;-4.20;99.90;;;;;;5061609;28;20036;-73
2024/01/13 08:06:41;;;;;;;71.18;23.33;;;-3.50;99.90;;;;;;5060634;28;20074;-74
2024/01/13 08:09:07;;;;;;;75.57;23.77;;;-4.10;99.90;;;;;;5060467;28;20451;-72
2024/01/13 08:11:33;;;;;;;69.32;20.70;;;-4.10;99.90;;;;;;5043857;28;20039;-73
2024/01/13 08:13:59;;;;;;;72.43;22.48;;;-4.20;99.90;;;;;;5062161;28;20084;-73
2024/01/13 08:16:25;;;;;;;67.18;20.85;;;-4.20;99.90;;;;;;5061924;28;20035;-73
2024/01/13 08:18:51;;;;;;;67.45;21.55;;;-4.00;99.90;;;;;;5058822;28;20060;-74
2024/01/13 08:21:16;;;;;;;76.50;23.20;;;-4.00;99.90;;;;;;5051477;28;20078;-73
2024/01/13 08:23:42;;;;;;;70.05;23.15;;;-3.90;99.90;;;;;;5051475;28;20137;-73
2024/01/13 08:26:08;;;;;;;76.80;21.90;;;-3.50;99.90;;;;;;5050864;28;20033;-73
2024/01/13 08:28:35;;;;;;;77.15;20.85;;;-3.80;99.90;;;;;;5050911;28;20043;-73
2024/01/13 08:31:00;;;;;;;78.25;23.20;;;-3.80;99.90;;;;;;5050898;28;20029;-75
2024/01/13 08:33:26;;;;;;;71.05;22.58;;;-3.10;99.90;;;;;;5050824;28;20021;-73
2024/01/13 08:35:52;;;;;;;66.35;20.85;;;-3.60;99.90;;;;;;5050997;28;20040;-72
2024/01/13 08:38:17;;;;;;;67.07;21.42;;;-3.60;99.90;;;;;;5051338;28;20560;-74
2024/01/13 08:40:46;;;;;;;72.32;22.40;;;-2.70;99.90;;;;;;5056682;28;20024;-73
2024/01/13 08:43:12;;;;;;;75.07;22.52;;;-3.60;99.90;;;;;;5061362;28;20455;-72
2024/01/13 08:45:38;;;;;;;70.28;20.65;;;-3.60;99.90;;;;;;5057617;28;20026;-74
2024/01/13 08:48:04;;;;;;;65.65;20.98;;;-3.50;99.90;;;;;;5046245;28;20025;-72
2024/01/13 08:50:32;;;;;;;72.70;21.60;;;-3.50;99.90;;;;;;5050693;28;20021;-72
2024/01/13 08:52:57;;;;;;;67.03;21.63;;;-3.50;99.90;;;;;;5053852;28;20036;-73
2024/01/13 08:55:23;;;;;;;64.28;18.23;;;-3.50;99.90;;;;;;5055718;28;20029;-72
2024/01/13 08:57:49;;;;;;;69.05;19.80;;;-2.70;99.90;;;;;;5053641;28;20024;-73
2024/01/13 09:00:15;;;;;;;59.10;19.35;;;-3.40;99.90;;;;;;5053580;28;20462;-73
2024/01/13 09:02:43;;;;;;;69.72;18.92;;;-3.40;99.90;;;;;;5059033;28;20035;-73
2024/01/13 09:05:09;;;;;;;56.42;19.70;;;-3.40;99.90;;;;;;5055519;28;20154;-72
2024/01/13 09:07:36;;;;;;;63.50;19.02;;;-3.50;99.90;;;;;;5055611;28;20040;-73
2024/01/13 09:10:02;;;;;;;55.60;18.60;;;-3.40;99.90;;;;;;5048535;28;20036;-74
2024/01/13 09:12:28;;;;;;;57.65;15.52;;;-3.50;99.90;;;;;;5030977;28;20679;-74
2024/01/13 09:14:54;;;;;;;58.47;17.23;;;-3.00;99.90;;;;;;5049569;28;20024;-73
2024/01/13 09:17:20;;;;;;;68.15;19.63;;;-3.60;99.90;;;;;;5051283;28;20024;-71
2024/01/13 09:19:45;;;;;;;68.72;20.55;;;-3.50;99.90;;;;;;5050798;28;20020;-72
2024/01/13 09:22:11;;;;;;;63.50;17.30;;;-3.40;99.90;;;;;;5050375;28;20057;-73
2024/01/13 09:24:37;;;;;;;71.60;21.55;;;-3.40;99.90;;;;;;5050184;28;20474;-72
2024/01/13 09:27:03;;;;;;;71.43;22.63;;;-3.10;99.90;;;;;;5049970;28;20473;-74
2024/01/13 09:29:29;;;;;;;75.65;20.75;;;-3.00;99.90;;;;;;5034364;28;20044;-73
2024/01/13 09:31:55;;;;;;;66.28;19.13;;;-3.00;99.90;;;;;;5055260;28;20021;-72
2024/01/13 09:34:21;;;;;;;70.03;20.20;;;-3.00;99.90;;;;;;5047172;28;20065;-75
2024/01/13 09:36:46;;;;;;;60.08;20.13;;;-2.80;99.90;;;;;;5053407;28;20032;-73
2024/01/13 09:39:14;;;;;;;62.08;19.45;;;-2.80;99.90;;;;;;5055063;28;20021;-74
2024/01/13 09:41:42;;;;;;;65.90;20.73;;;-2.90;99.90;;;;;;5059359;28;20024;-75
2024/01/13 09:44:23;;;;;;;61.13;19.20;;;-2.80;99.90;;;;;;5033842;28;20032;-73
2024/01/13 09:46:51;;;;;;;56.70;17.40;;;-3.00;99.90;;;;;;5035823;28;20439;-74
2024/01/13 09:49:18;;;;;;;55.97;17.33;;;-3.10;99.90;;;;;;5047262;28;20032;-75
2024/01/13 09:51:45;;;;;;;65.07;18.67;;;-3.20;99.90;;;;;;5049673;28;20095;-73
2024/01/13 09:54:20;;;;;;;65.82;18.05;;;-3.10;99.90;;;;;;5048344;28;20079;-74
2024/01/13 09:56:47;;;;;;;60.50;17.75;;;-2.50;99.90;;;;;;5043298;28;20071;-71
2024/01/13 09:59:14;;;;;;;55.40;18.83;;;-2.80;99.90;;;;;;5042428;28;20025;-72
2024/01/13 10:01:40;;;;;;;59.88;17.85;;;-2.10;99.90;;;;;;5026134;28;20600;-72
2024/01/13 10:04:07;;;;;;;60.80;17.67;;;-2.10;99.90;;;;;;5029729;28;20056;-75
2024/01/13 10:06:33;;;;;;;57.80;17.30;;;-2.60;99.90;;;;;;5057370;28;20025;-71
2024/01/13 10:08:59;;;;;;;57.67;18.40;;;-2.50;99.90;;;;;;5058913;28;20103;-72
2024/01/13 10:11:25;;;;;;;58.42;17.52;;;-1.70;99.90;;;;;;5039681;28;20053;-71
2024/01/13 10:14:01;;;;;;;58.63;18.38;;;-2.70;99.90;;;;;;5059584;28;20309;-73
2024/01/13 10:16:29;;;;;;;66.20;19.27;;;-2.80;99.90;;;;;;5059508;28;20029;-71
2024/01/13 10:19:00;;;;;;;61.38;18.77;;;-2.70;99.90;;;;;;5060346;28;20025;-73
2024/01/13 10:21:26;;;;;;;59.38;18.13;;;-2.60;99.90;;;;;;5041801;28;20063;-71
2024/01/13 10:23:57;;;;;;;64.97;17.77;;;-2.60;99.90;;;;;;5057999;28;20048;-70
2024/01/13 10:26:27;;;;;;;59.60;16.42;;;-2.70;99.90;;;;;;5039037;28;20111;-75
2024/01/13 10:28:54;;;;;;;58.33;17.17;;;-2.70;99.90;;;;;;5059966;28;20178;-71
2024/01/13 10:31:21;;;;;;;63.05;17.75;;;-3.00;99.90;;;;;;5059967;28;20024;-73
2024/01/13 10:33:48;;;;;;;54.95;17.52;;;-2.80;99.90;;;;;;5059757;28;20025;-73
2024/01/13 10:36:26;;;;;;;58.78;19.35;;;-2.60;99.90;;;;;;5059056;28;20024;-74
2024/01/13 10:38:52;;;;;;;47.83;18.55;;;-2.30;99.90;;;;;;5054202;28;20305;-71
2024/01/13 10:41:23;;;;;;;56.95;20.55;;;-1.90;99.90;;;;;;5056568;28;20040;-73
2024/01/13 10:43:54;;;;;;;66.20;19.83;;;-1.70;99.90;;;;;;5059252;28;20041;-73
2024/01/13 10:46:23;;;;;;;53.42;17.98;;;-1.50;99.90;;;;;;5041387;28;20212;-73
2024/01/13 10:48:51;;;;;;;64.53;18.85;;;-1.60;99.90;;;;;;5059624;28;20111;-74
2024/01/13 10:51:19;;;;;;;56.65;17.15;;;-1.60;99.90;;;;;;5057254;28;20028;-73
2024/01/13 10:53:47;;;;;;;53.75;16.98;;;-1.30;99.90;;;;;;5058614;28;20118;-73
2024/01/13 10:56:15;;;;;;;54.90;18.90;;;-1.50;99.90;;;;;;5054194;28;20029;-74
2024/01/13 10:58:42;;;;;;;64.22;18.67;;;-1.50;99.90;;;;;;5058352;28;20229;-71
2024/01/13 11:01:07;;;;;;;53.45;16.80;;;-1.60;99.90;;;;;;5041612;28;20183;-71
2024/01/13 11:03:36;;;;;;;56.95;16.65;;;-1.80;99.90;;;;;;5059006;28;20047;-69
2024/01/13 11:06:02;;;;;;;58.33;18.27;;;-1.90;99.90;;;;;;5058717;28;20325;-70
2024/01/13 11:08:28;;;;;;;55.38;17.38;;;-1.90;99.90;;;;;;5060089;28;20032;-73
2024/01/13 11:10:56;;;;;;;51.85;15.35;;;-1.90;99.90;;;;;;5060536;28;20056;-73
2024/01/13 11:13:25;;;;;;;50.17;14.95;;;-1.80;99.90;;;;;;5061333;28;20104;-73
2024/01/13 11:16:03;;;;;;;50.47;16.58;;;-1.70;99.90;;;;;;5063579;28;20025;-71
2024/01/13 11:18:35;;;;;;;55.70;18.17;;;-1.70;99.90;;;;;;5062972;28;20025;-71
2024/01/13 11:21:06;;;;;;;42.33;12.75;;;-1.60;99.90;;;;;;5045007;28;20041;-71
2024/01/13 11:23:56;;;;;;;50.85;14.93;;;-1.60;99.90;;;;;;5062891;28;20064;-71
2024/01/13 11:26:32;;;;;;;51.97;16.88;;;-1.50;99.90;;;;;;5063780;28;20025;-72
2024/01/13 11:28:57;;;;;;;52.35;16.15;;;-1.50;99.90;;;;;;5064539;28;20045;-72
2024/01/13 11:31:39;;;;;;;42.80;14.55;;;-1.30;99.90;;;;;;5062757;28;20032;-71
2024/01/13 11:34:10;;;;;;;46.55;14.68;;;-1.20;99.90;;;;;;5062103;28;20032;-71
2024/01/13 11:36:39;;;;;;;45.72;17.02;;;-0.90;99.90;;;;;;5062139;28;20360;-71
2024/01/13 11:39:06;;;;;;;50.17;16.13;;;-0.90;99.90;;;;;;5063143;28;20081;-71
2024/01/13 11:41:54;;;;;;;48.22;17.35;;;-0.80;99.90;;;;;;5044030;28;20094;-73
2024/01/13 11:44:27;;;;;;;50.20;16.53;;;-0.70;99.90;;;;;;5062803;28;20061;-70
2024/01/13 11:47:07;;;;;;;47.72;17.05;;;-0.50;99.90;;;;;;5062149;28;20348;-68
2024/01/13 11:49:37;;;;;;;51.15;15.00;;;-0.80;99.90;;;;;;5062170;28;20065;-73
2024/01/13 11:52:04;;;;;;;51.35;15.25;;;-0.80;99.90;;;;;;5044335;28;20583;-70
2024/01/13 11:54:31;;;;;;;38.13;14.93;;;-0.60;99.90;;;;;;5061666;28;20039;-70
2024/01/13 11:56:58;;;;;;;45.63;16.13;;;-0.50;99.90;;;;;;5061998;28;20031;-71
2024/01/13 11:59:24;;;;;;;45.05;15.05;;;-0.50;99.90;;;;;;5062077;28;20100;-72
2024/01/13 12:01:52;;;;;;;44.97;15.40;;;-0.40;99.90;;;;;;5055953;28;20062;-71
2024/01/13 12:04:18;;;;;;;47.80;14.75;;;-0.60;99.90;;;;;;5058674;28;20032;-74
2024/01/13 12:06:45;;;;;;;40.30;14.32;;;-0.50;99.90;;;;;;5056110;28;20372;-70
2024/01/13 12:09:12;;;;;;;40.25;13.50;;;-0.40;99.90;;;;;;5055887;28;20025;-72
2024/01/13 12:11:50;;;;;;;48.85;15.00;;;-0.30;99.90;;;;;;5058734;28;20238;-72
2024/01/13 12:14:16;;;;;;;45.10;15.47;;;-0.40;99.90;;;;;;5042353;28;20013;-71
2024/01/13 12:16:41;;;;;;;47.63;16.23;;;-0.60;99.90;;;;;;5062346;28;20214;-69
2024/01/13 12:19:08;;;;;;;39.17;13.10;;;-0.80;99.90;;;;;;5056089;28;20477;-71